createdAt,value
2023-03-27T00:01:17.077Z,100.00
2023-03-27T00:03:49.557Z,100.00
2023-03-27T00:06:19.301Z,100.00
2023-03-27T00:08:49.028Z,100.00
2023-03-27T00:11:18.444Z,100.00
2023-03-27T00:13:50.219Z,100.00
2023-03-27T00:16:19.450Z,100.00
2023-03-27T00:18:47.217Z,100.00
2023-03-27T00:21:15.009Z,100.00
2023-03-27T00:23:43.219Z,100.00
2023-03-27T00:26:12.050Z,100.00
2023-03-27T00:28:41.345Z,100.00
2023-03-27T00:31:12.527Z,100.00
2023-03-27T00:33:41.190Z,100.00
2023-03-27T00:36:10.490Z,100.00
2023-03-27T00:38:39.641Z,100.00
2023-03-27T00:41:09.159Z,100.00
2023-03-27T00:43:42.583Z,100.00
2023-03-27T00:46:27.808Z,100.00
2023-03-27T00:48:57.188Z,100.00
2023-03-27T00:51:27.674Z,100.00
2023-03-27T00:53:56.661Z,100.00
2023-03-27T00:56:25.800Z,100.00
2023-03-27T00:58:56.959Z,100.00
2023-03-27T01:01:29.577Z,100.00
2023-03-27T01:04:01.509Z,100.00
2023-03-27T01:06:31.179Z,100.00
2023-03-27T01:08:59.077Z,100.00
2023-03-27T01:11:39.698Z,100.00
2023-03-27T01:14:14.071Z,100.00
2023-03-27T01:16:52.589Z,100.00
2023-03-27T01:19:43.078Z,100.00
2023-03-27T01:22:33.609Z,100.00
2023-03-27T01:25:58.720Z,100.00
2023-03-27T01:28:37.979Z,100.00
2023-03-27T01:31:26.092Z,100.00
2023-03-27T01:34:17.918Z,100.00
2023-03-27T01:37:06.471Z,100.00
2023-03-27T01:39:49.413Z,100.00
2023-03-27T01:42:23.081Z,100.00
2023-03-27T01:44:55.102Z,100.00
2023-03-27T01:47:36.098Z,100.00
2023-03-27T01:50:13.044Z,100.00
2023-03-27T01:52:44.170Z,100.00
2023-03-27T01:55:19.207Z,100.00
2023-03-27T01:57:51.821Z,100.00
2023-03-27T02:00:23.593Z,100.00
2023-03-27T02:02:56.852Z,100.00
2023-03-27T02:05:31.685Z,100.00
2023-03-27T02:08:06.107Z,100.00
2023-03-27T02:10:41.659Z,100.00
2023-03-27T02:13:14.700Z,100.00
2023-03-27T02:15:45.427Z,100.00
2023-03-27T02:18:19.256Z,100.00
2023-03-27T02:20:47.392Z,100.00
2023-03-27T02:23:15.446Z,100.00
2023-03-27T02:25:46.623Z,100.00
2023-03-27T02:28:35.173Z,100.00
2023-03-27T02:31:33.140Z,100.00
2023-03-27T02:34:18.459Z,100.00
2023-03-27T02:36:55.294Z,100.00
2023-03-27T02:39:30.494Z,100.00
2023-03-27T02:42:05.105Z,100.00
2023-03-27T02:44:47.387Z,100.00
2023-03-27T02:47:24.351Z,100.00
2023-03-27T02:49:54.972Z,100.00
2023-03-27T02:52:27.338Z,100.00
2023-03-27T02:55:04.811Z,100.00
2023-03-27T02:57:40.105Z,100.00
2023-03-27T03:00:18.471Z,100.00
2023-03-27T03:02:47.844Z,100.00
2023-03-27T03:05:20.992Z,100.00
2023-03-27T03:07:49.445Z,100.00
2023-03-27T03:10:17.795Z,100.00
2023-03-27T03:12:46.905Z,100.00
2023-03-27T03:15:14.641Z,100.00
2023-03-27T03:17:43.408Z,100.00
2023-03-27T03:20:13.050Z,100.00
2023-03-27T03:22:42.195Z,100.00
2023-03-27T03:25:11.618Z,100.00
2023-03-27T03:27:41.392Z,100.00
2023-03-27T03:30:11.949Z,100.00
2023-03-27T03:32:45.011Z,100.00
2023-03-27T03:35:13.707Z,100.00
2023-03-27T03:37:41.593Z,100.00
2023-03-27T03:40:11.995Z,100.00
2023-03-27T03:42:45.779Z,100.00
2023-03-27T03:45:15.498Z,100.00
2023-03-27T03:47:43.962Z,100.00
2023-03-27T03:50:12.504Z,100.00
2023-03-27T03:52:40.402Z,100.00
2023-03-27T03:55:10.763Z,100.00
2023-03-27T03:57:38.675Z,100.00
2023-03-27T04:00:08.672Z,100.00
2023-03-27T04:02:38.616Z,100.00
2023-03-27T04:05:08.741Z,100.00
2023-03-27T04:07:37.568Z,100.00
2023-03-27T04:10:05.867Z,100.00
2023-03-27T04:12:33.619Z,100.00
2023-03-27T04:15:01.375Z,100.00
2023-03-27T04:17:29.203Z,100.00
2023-03-27T04:19:58.382Z,100.00
2023-03-27T04:22:26.322Z,100.00
2023-03-27T04:24:54.387Z,100.00
2023-03-27T04:27:22.334Z,100.00
2023-03-27T04:29:50.070Z,100.00
2023-03-27T04:32:19.259Z,100.00
2023-03-27T04:34:48.289Z,100.00
2023-03-27T04:37:18.456Z,100.00
2023-03-27T04:39:52.559Z,100.00
2023-03-27T04:42:22.771Z,100.00
2023-03-27T04:44:52.438Z,100.00
2023-03-27T04:47:21.280Z,100.00
2023-03-27T04:49:51.008Z,100.00
2023-03-27T04:52:20.241Z,100.00
2023-03-27T04:54:48.344Z,100.00
2023-03-27T04:57:19.078Z,100.00
2023-03-27T04:59:46.934Z,100.00
2023-03-27T05:02:14.666Z,100.00
2023-03-27T05:04:42.371Z,100.00
2023-03-27T05:07:10.183Z,100.00
2023-03-27T05:09:39.355Z,100.00
2023-03-27T05:12:07.610Z,100.00
2023-03-27T05:14:35.353Z,100.00
2023-03-27T05:17:03.065Z,100.00
2023-03-27T05:19:30.862Z,100.00
2023-03-27T05:21:58.685Z,100.00
2023-03-27T05:24:27.861Z,100.00
2023-03-27T05:26:56.993Z,100.00
2023-03-27T05:29:25.877Z,100.00
2023-03-27T05:31:53.656Z,100.00
2023-03-27T05:34:21.882Z,100.00
2023-03-27T05:36:49.778Z,100.00
2023-03-27T05:39:17.590Z,100.00
2023-03-27T05:41:45.515Z,100.00
2023-03-27T05:44:14.701Z,100.00
2023-03-27T05:46:42.697Z,100.00
2023-03-27T05:49:10.645Z,100.00
2023-03-27T05:51:38.369Z,100.00
2023-03-27T05:54:14.969Z,100.00
2023-03-27T05:56:42.734Z,100.00
2023-03-27T05:59:10.543Z,100.00
2023-03-27T06:01:39.928Z,100.00
2023-03-27T06:04:09.329Z,100.00
2023-03-27T06:06:37.825Z,100.00
2023-03-27T06:09:07.759Z,100.00
2023-03-27T06:11:35.541Z,100.00
2023-03-27T06:14:04.119Z,100.00
2023-03-27T06:16:32.329Z,100.00
2023-03-27T06:19:01.471Z,100.00
2023-03-27T06:21:29.240Z,100.00
2023-03-27T06:23:57.017Z,100.00
2023-03-27T06:26:25.170Z,100.00
2023-03-27T06:28:53.074Z,100.00
2023-03-27T06:31:22.067Z,100.00
2023-03-27T06:33:50.192Z,100.00
2023-03-27T06:36:19.528Z,100.00
2023-03-27T06:38:47.471Z,100.00
2023-03-27T06:41:15.217Z,100.00
2023-03-27T06:43:43.002Z,100.00
2023-03-27T06:46:10.764Z,100.00
2023-03-27T06:48:39.518Z,100.00
2023-03-27T06:51:07.940Z,100.00
2023-03-27T06:53:38.203Z,95.67
2023-03-27T06:56:07.346Z,90.34
2023-03-27T06:58:35.147Z,86.35
2023-03-27T07:01:03.572Z,93.37
2023-03-27T07:03:31.354Z,82.57
2023-03-27T07:06:00.548Z,78.38
2023-03-27T07:08:28.720Z,79.85
2023-03-27T07:11:10.595Z,81.81
2023-03-27T07:13:40.951Z,83.13
2023-03-27T07:16:10.288Z,74.88
2023-03-27T07:18:38.050Z,74.75
2023-03-27T07:21:07.683Z,60.44
2023-03-27T07:23:35.685Z,52.35
2023-03-27T07:26:05.129Z,50.87
2023-03-27T07:28:32.874Z,52.58
2023-03-27T07:31:00.945Z,52.21
2023-03-27T07:33:28.763Z,52.87
2023-03-27T07:35:56.836Z,64.24
2023-03-27T07:38:25.420Z,72.37
2023-03-27T07:40:53.139Z,70.83
2023-03-27T07:43:22.369Z,66.57
2023-03-27T07:45:50.632Z,63.43
2023-03-27T07:48:18.994Z,58.15
2023-03-27T07:50:47.739Z,61.27
2023-03-27T07:53:33.474Z,63.00
2023-03-27T07:56:02.387Z,60.16
2023-03-27T07:58:31.688Z,58.73
2023-03-27T08:01:02.217Z,55.04
2023-03-27T08:03:31.578Z,54.77
2023-03-27T08:06:01.645Z,53.50
2023-03-27T08:08:29.437Z,49.38
2023-03-27T08:10:57.956Z,51.63
2023-03-27T08:13:26.205Z,51.62
2023-03-27T08:16:04.232Z,49.46
2023-03-27T08:18:32.091Z,47.04
2023-03-27T08:21:01.832Z,43.09
2023-03-27T08:23:31.116Z,43.61
2023-03-27T08:26:00.494Z,41.83
2023-03-27T08:28:28.903Z,41.82
2023-03-27T08:31:02.733Z,42.86
2023-03-27T08:33:31.443Z,42.63
2023-03-27T08:35:59.506Z,43.84
2023-03-27T08:38:28.662Z,44.96
2023-03-27T08:40:59.119Z,44.80
2023-03-27T08:43:31.596Z,44.72
2023-03-27T08:46:04.492Z,44.04
2023-03-27T08:48:36.673Z,44.96
2023-03-27T08:51:08.369Z,47.48
2023-03-27T08:53:42.702Z,48.93
2023-03-27T08:56:14.327Z,50.14
2023-03-27T08:58:43.140Z,49.45
2023-03-27T09:01:17.724Z,50.79
2023-03-27T09:03:53.222Z,51.08
2023-03-27T09:06:27.824Z,49.04
2023-03-27T09:09:04.145Z,49.82
2023-03-27T09:11:42.830Z,46.98
2023-03-27T09:14:20.847Z,50.30
2023-03-27T09:16:51.518Z,45.39
2023-03-27T09:19:27.597Z,45.07
2023-03-27T09:22:01.210Z,45.57
2023-03-27T09:24:33.445Z,47.27
2023-03-27T09:27:11.749Z,44.96
2023-03-27T09:29:42.090Z,44.56
2023-03-27T09:32:16.170Z,44.13
2023-03-27T09:34:44.699Z,44.05
2023-03-27T09:37:13.622Z,44.52
2023-03-27T09:39:45.250Z,43.96
2023-03-27T09:42:19.317Z,44.59
2023-03-27T09:44:50.406Z,46.68
2023-03-27T09:47:23.232Z,48.34
2023-03-27T09:49:56.286Z,44.00
2023-03-27T09:52:36.876Z,44.64
2023-03-27T09:55:24.132Z,51.51
2023-03-27T09:57:58.823Z,46.62
2023-03-27T10:00:31.229Z,48.96
2023-03-27T10:03:08.030Z,57.50
2023-03-27T10:05:36.883Z,51.60
2023-03-27T10:08:31.266Z,57.39
2023-03-27T10:10:59.911Z,71.08
2023-03-27T10:13:29.683Z,75.34
2023-03-27T10:16:01.534Z,67.17
2023-03-27T10:18:32.780Z,57.46
2023-03-27T10:21:03.490Z,57.46
2023-03-27T10:23:42.946Z,50.59
2023-03-27T10:26:15.060Z,49.78
2023-03-27T10:28:49.004Z,46.23
2023-03-27T10:31:30.129Z,50.41
2023-03-27T10:34:02.167Z,49.95
2023-03-27T10:36:34.460Z,51.16
2023-03-27T10:39:05.192Z,54.28
2023-03-27T10:41:37.058Z,48.90
2023-03-27T10:44:14.393Z,48.68
2023-03-27T10:46:43.511Z,48.08
2023-03-27T10:49:25.579Z,49.80
2023-03-27T10:52:03.768Z,44.45
2023-03-27T10:54:42.736Z,43.07
2023-03-27T10:57:15.760Z,41.79
2023-03-27T10:59:47.805Z,40.53
2023-03-27T11:02:20.443Z,40.20
2023-03-27T11:04:54.135Z,42.70
2023-03-27T11:07:28.379Z,43.04
2023-03-27T11:10:00.197Z,48.09
2023-03-27T11:12:31.894Z,59.75
2023-03-27T11:15:04.345Z,71.66
2023-03-27T11:17:40.685Z,83.80
2023-03-27T11:20:21.387Z,89.69
2023-03-27T11:22:53.703Z,91.78
2023-03-27T11:25:31.813Z,89.70
2023-03-27T11:28:06.603Z,96.30
2023-03-27T11:30:39.505Z,79.63
2023-03-27T11:33:26.147Z,61.55
2023-03-27T11:36:02.608Z,54.93
2023-03-27T11:38:34.356Z,53.80
2023-03-27T11:41:02.565Z,64.65
2023-03-27T11:43:30.432Z,59.24
2023-03-27T11:46:10.815Z,69.66
2023-03-27T11:49:10.827Z,69.01
2023-03-27T11:51:57.415Z,65.12
2023-03-27T11:54:40.612Z,63.89
2023-03-27T11:57:20.073Z,76.79
2023-03-27T12:00:12.151Z,73.45
2023-03-27T12:02:57.668Z,59.66
2023-03-27T12:05:38.591Z,59.95
2023-03-27T12:08:20.990Z,48.61
2023-03-27T12:10:53.203Z,48.61
2023-03-27T12:13:58.165Z,49.73
2023-03-27T12:16:49.472Z,46.00
2023-03-27T12:19:38.541Z,45.15
2023-03-27T12:22:24.411Z,42.93
2023-03-27T12:25:06.742Z,40.93
2023-03-27T12:27:47.411Z,40.38
2023-03-27T12:30:27.482Z,42.38
2023-03-27T12:33:12.763Z,42.34
2023-03-27T12:35:47.024Z,48.27
2023-03-27T12:38:23.818Z,46.03
2023-03-27T12:41:03.897Z,50.50
2023-03-27T12:43:33.873Z,49.00
2023-03-27T12:46:12.012Z,44.92
2023-03-27T12:48:57.778Z,48.31
2023-03-27T12:51:38.837Z,50.34
2023-03-27T12:54:24.489Z,47.76
2023-03-27T12:57:05.131Z,44.41
2023-03-27T12:59:36.822Z,43.35
2023-03-27T13:02:33.433Z,47.00
2023-03-27T13:05:26.868Z,48.68
2023-03-27T13:08:13.335Z,64.89
2023-03-27T13:10:55.927Z,68.13
2023-03-27T13:14:05.007Z,82.92
2023-03-27T13:16:58.628Z,82.98
2023-03-27T13:19:40.334Z,64.41
2023-03-27T13:22:23.546Z,56.39
2023-03-27T13:25:20.513Z,52.36
2023-03-27T13:28:08.379Z,49.97
2023-03-27T13:30:48.932Z,58.70
2023-03-27T13:33:26.464Z,74.04
2023-03-27T13:36:07.384Z,85.51
2023-03-27T13:38:47.569Z,82.62
2023-03-27T13:41:42.250Z,80.46
2023-03-27T13:44:13.810Z,82.47
2023-03-27T13:46:48.236Z,77.72
2023-03-27T13:49:33.463Z,70.32
2023-03-27T13:52:36.363Z,65.53
2023-03-27T13:55:38.485Z,61.22
2023-03-27T13:58:22.832Z,69.38
2023-03-27T14:01:03.384Z,60.41
2023-03-27T14:04:08.442Z,68.81
2023-03-27T14:07:37.546Z,70.00
2023-03-27T14:10:15.835Z,76.70
2023-03-27T14:12:59.609Z,80.88
2023-03-27T14:15:42.817Z,89.82
2023-03-27T14:18:44.324Z,100.00
2023-03-27T14:21:21.983Z,100.00
2023-03-27T14:24:09.521Z,100.00
2023-03-27T14:26:42.480Z,100.00
2023-03-27T14:29:10.726Z,100.00
2023-03-27T14:31:38.874Z,100.00
2023-03-27T14:34:15.680Z,100.00
2023-03-27T14:36:46.074Z,100.00
2023-03-27T14:39:20.577Z,100.00
2023-03-27T14:41:49.829Z,100.00
2023-03-27T14:44:19.714Z,100.00
2023-03-27T14:46:48.987Z,100.00
2023-03-27T14:49:19.386Z,100.00
2023-03-27T14:51:49.640Z,100.00
2023-03-27T14:54:27.070Z,100.00
2023-03-27T14:56:57.338Z,100.00
2023-03-27T14:59:27.741Z,100.00
2023-03-27T15:01:57.482Z,100.00
2023-03-27T15:04:26.275Z,100.00
2023-03-27T15:06:56.044Z,100.00
2023-03-27T15:09:25.215Z,100.00
2023-03-27T15:11:56.807Z,100.00
2023-03-27T15:14:29.266Z,100.00
2023-03-27T15:17:00.799Z,100.00
2023-03-27T15:19:32.101Z,100.00
2023-03-27T15:22:04.791Z,100.00
2023-03-27T15:24:41.527Z,100.00
2023-03-27T15:27:18.329Z,100.00
2023-03-27T15:29:51.623Z,100.00
2023-03-27T15:32:22.069Z,100.00
2023-03-27T15:34:56.788Z,100.00
2023-03-27T15:37:28.481Z,100.00
2023-03-27T15:40:07.221Z,100.00
2023-03-27T15:42:47.518Z,100.00
2023-03-27T15:45:17.303Z,100.00
2023-03-27T15:47:45.647Z,100.00
2023-03-27T15:50:20.998Z,100.00
2023-03-27T15:52:50.450Z,100.00
2023-03-27T15:55:36.450Z,100.00
2023-03-27T15:58:16.203Z,100.00
2023-03-27T16:00:47.467Z,100.00
2023-03-27T16:03:19.647Z,100.00
2023-03-27T16:05:47.925Z,100.00
2023-03-27T16:08:28.293Z,100.00
2023-03-27T16:10:58.903Z,100.00
2023-03-27T16:13:30.115Z,100.00
2023-03-27T16:15:59.770Z,100.00
2023-03-27T16:18:33.001Z,100.00
2023-03-27T16:21:09.181Z,100.00
2023-03-27T16:23:37.280Z,100.00
2023-03-27T16:26:08.397Z,100.00
2023-03-27T16:28:36.740Z,100.00
2023-03-27T16:31:12.504Z,100.00
2023-03-27T16:33:42.975Z,100.00
2023-03-27T16:36:12.721Z,100.00
2023-03-27T16:38:42.406Z,100.00
2023-03-27T16:41:14.962Z,100.00
2023-03-27T16:43:43.516Z,100.00
2023-03-27T16:46:18.145Z,100.00
2023-03-27T16:48:45.964Z,100.00
2023-03-27T16:51:13.746Z,100.00
2023-03-27T16:53:41.449Z,100.00
2023-03-27T16:56:09.537Z,100.00
2023-03-27T16:58:39.158Z,100.00
2023-03-27T17:01:08.031Z,100.00
2023-03-27T17:03:37.139Z,100.00
2023-03-27T17:06:07.435Z,100.00
2023-03-27T17:08:35.764Z,100.00
2023-03-27T17:11:04.741Z,100.00
2023-03-27T17:13:32.841Z,100.00
2023-03-27T17:16:02.004Z,100.00
2023-03-27T17:18:30.568Z,100.00
2023-03-27T17:20:58.891Z,100.00
2023-03-27T17:23:26.688Z,100.00
2023-03-27T17:25:54.659Z,100.00
2023-03-27T17:28:22.662Z,100.00
2023-03-27T17:31:03.339Z,100.00
2023-03-27T17:33:33.766Z,100.00
2023-03-27T17:36:01.747Z,100.00
2023-03-27T17:38:30.577Z,100.00
2023-03-27T17:40:58.850Z,100.00
2023-03-27T17:43:38.100Z,100.00
2023-03-27T17:46:06.432Z,100.00
2023-03-27T17:48:36.088Z,100.00
2023-03-27T17:51:08.880Z,100.00
2023-03-27T17:53:37.676Z,100.00
2023-03-27T17:56:06.308Z,100.00
2023-03-27T17:58:34.406Z,100.00
2023-03-27T18:01:12.481Z,100.00
2023-03-27T18:03:41.729Z,100.00
2023-03-27T18:06:09.697Z,100.00
2023-03-27T18:08:37.734Z,100.00
2023-03-27T18:11:09.308Z,100.00
2023-03-27T18:13:37.325Z,100.00
2023-03-27T18:16:06.914Z,100.00
2023-03-27T18:18:35.512Z,100.00
2023-03-27T18:21:04.860Z,100.00
2023-03-27T18:23:32.853Z,100.00
2023-03-27T18:26:04.732Z,100.00
2023-03-27T18:28:32.477Z,100.00
2023-03-27T18:31:02.039Z,100.00
2023-03-27T18:33:29.875Z,100.00
2023-03-27T18:35:58.269Z,100.00
2023-03-27T18:38:29.038Z,100.00
2023-03-27T18:40:59.710Z,100.00
2023-03-27T18:43:27.715Z,100.00
2023-03-27T18:45:57.322Z,100.00
2023-03-27T18:48:25.714Z,100.00
2023-03-27T18:50:54.504Z,100.00
2023-03-27T18:53:22.202Z,100.00
2023-03-27T18:55:52.107Z,100.00
2023-03-27T18:58:20.669Z,100.00
2023-03-27T19:00:48.727Z,100.00
2023-03-27T19:03:18.341Z,100.00
2023-03-27T19:05:46.358Z,100.00
2023-03-27T19:08:14.348Z,100.00
2023-03-27T19:10:42.257Z,100.00
2023-03-27T19:13:11.818Z,100.00
2023-03-27T19:15:41.152Z,100.00
2023-03-27T19:18:09.318Z,100.00
2023-03-27T19:20:37.432Z,100.00
2023-03-27T19:23:05.704Z,100.00
2023-03-27T19:25:34.385Z,100.00
2023-03-27T19:28:02.395Z,100.00
2023-03-27T19:30:32.362Z,100.00
2023-03-27T19:33:00.389Z,100.00
2023-03-27T19:35:29.384Z,100.00
2023-03-27T19:37:57.209Z,100.00
2023-03-27T19:40:24.974Z,100.00
2023-03-27T19:42:52.786Z,100.00
2023-03-27T19:45:20.531Z,100.00
2023-03-27T19:47:49.722Z,100.00
2023-03-27T19:50:17.498Z,100.00
2023-03-27T19:52:49.504Z,100.00
2023-03-27T19:55:25.843Z,100.00
2023-03-27T19:57:55.018Z,100.00
2023-03-27T20:00:23.141Z,100.00
2023-03-27T20:02:52.828Z,100.00
2023-03-27T20:05:22.107Z,100.00
2023-03-27T20:07:49.878Z,100.00
2023-03-27T20:10:17.654Z,100.00
2023-03-27T20:12:45.433Z,100.00
2023-03-27T20:15:13.464Z,100.00
2023-03-27T20:17:41.941Z,100.00
2023-03-27T20:20:12.452Z,100.00
2023-03-27T20:22:54.050Z,100.00
2023-03-27T20:25:24.838Z,100.00
2023-03-27T20:27:52.625Z,100.00
2023-03-27T20:30:20.435Z,100.00
2023-03-27T20:32:49.115Z,100.00
2023-03-27T20:35:24.398Z,100.00
2023-03-27T20:37:57.783Z,100.00
2023-03-27T20:40:26.563Z,100.00
2023-03-27T20:43:03.006Z,100.00
2023-03-27T20:45:31.258Z,100.00
2023-03-27T20:48:04.183Z,100.00
2023-03-27T20:50:35.348Z,100.00
2023-03-27T20:53:04.387Z,100.00
2023-03-27T20:55:37.330Z,100.00
2023-03-27T20:58:09.286Z,100.00
2023-03-27T21:00:37.094Z,100.00
2023-03-27T21:03:05.384Z,100.00
2023-03-27T21:05:38.249Z,100.00
2023-03-27T21:08:07.337Z,100.00
2023-03-27T21:10:35.336Z,100.00
2023-03-27T21:13:03.190Z,100.00
2023-03-27T21:15:32.008Z,100.00
2023-03-27T21:18:00.401Z,100.00
2023-03-27T21:20:28.431Z,100.00
2023-03-27T21:22:57.575Z,100.00
2023-03-27T21:25:25.370Z,100.00
2023-03-27T21:27:53.473Z,100.00
2023-03-27T21:30:22.100Z,100.00
2023-03-27T21:32:50.736Z,100.00
2023-03-27T21:35:18.858Z,100.00
2023-03-27T21:37:46.606Z,100.00
2023-03-27T21:40:16.265Z,100.00
2023-03-27T21:42:43.985Z,100.00
2023-03-27T21:45:15.697Z,100.00
2023-03-27T21:47:47.576Z,100.00
2023-03-27T21:50:16.001Z,100.00
2023-03-27T21:52:43.850Z,100.00
2023-03-27T21:55:11.702Z,100.00
2023-03-27T21:57:41.093Z,100.00
2023-03-27T22:00:10.508Z,100.00
2023-03-27T22:02:38.282Z,100.00
2023-03-27T22:05:06.913Z,100.00
2023-03-27T22:07:34.827Z,100.00
2023-03-27T22:10:05.448Z,100.00
2023-03-27T22:12:35.318Z,100.00
2023-03-27T22:15:05.294Z,100.00
2023-03-27T22:17:33.092Z,100.00
2023-03-27T22:20:00.955Z,100.00
2023-03-27T22:22:28.707Z,100.00
2023-03-27T22:24:56.469Z,100.00
2023-03-27T22:27:24.237Z,100.00
2023-03-27T22:29:51.994Z,100.00
2023-03-27T22:32:21.196Z,100.00
2023-03-27T22:34:49.239Z,100.00
2023-03-27T22:37:17.421Z,100.00
2023-03-27T22:39:45.491Z,100.00
2023-03-27T22:42:13.333Z,100.00
2023-03-27T22:44:41.113Z,100.00
2023-03-27T22:47:08.862Z,100.00
2023-03-27T22:49:38.064Z,100.00
2023-03-27T22:52:07.080Z,100.00
2023-03-27T22:54:35.020Z,100.00
2023-03-27T22:57:02.828Z,100.00
2023-03-27T22:59:30.698Z,100.00
2023-03-27T23:01:58.558Z,100.00
2023-03-27T23:04:26.359Z,100.00
2023-03-27T23:06:55.852Z,100.00
2023-03-27T23:09:23.577Z,100.00
2023-03-27T23:11:51.313Z,100.00
2023-03-27T23:14:19.075Z,100.00
2023-03-27T23:16:46.882Z,100.00
2023-03-27T23:19:14.636Z,100.00
2023-03-27T23:21:42.374Z,100.00
2023-03-27T23:24:11.465Z,100.00
2023-03-27T23:26:39.191Z,100.00
2023-03-27T23:29:06.918Z,100.00
2023-03-27T23:31:34.724Z,100.00
2023-03-27T23:34:02.501Z,100.00
2023-03-27T23:36:30.983Z,100.00
2023-03-27T23:38:58.714Z,100.00
2023-03-27T23:41:29.402Z,100.00
2023-03-27T23:43:57.104Z,100.00
2023-03-27T23:46:24.867Z,100.00
2023-03-27T23:48:52.569Z,100.00
2023-03-27T23:51:20.395Z,100.00
2023-03-27T23:53:48.151Z,100.00
2023-03-27T23:56:16.155Z,100.00
2023-03-27T23:58:45.629Z,100.00
